Latest Weather Observations for Argyle

IDD60801

Issued at 5:35 pm CST Wednesday 23 April 2014 (issued every 30 minutes, with the page automatically refreshed every 10 minutes)

About weather observations | Map of weather stations | Latest weather observations for NT | Other Formats
Station Details ID: 002064 Name: ARGYLE AERODROME Lat: -16.64 Lon: 128.45 Height: 164.0 m
Data from the previous 72 hours. | See also: Recent months at Argyle
Date/Time
CST
Temp
°C
App
Temp
°C
Dew
Point
Rel
Hum
%
Delta-T
°C
Wind Press
QNH
hPa
Press
MSL
hPa
Rain
since 9 am
mm
Dir
 
Spd
km/h
Gust
km/h
Spd
kts
Gust
kts
23/05:30pm 34.3 30.4 5.5 16 15.6 SSE 15 20 8 11 1008.5 - 0.0
23/05:00pm 34.9 31.2 6.1 17 15.8 SSE 15 20 8 11 1008.5 - 0.0
23/04:30pm 35.2 32.7 6.4 17 15.9 SE 9 15 5 8 1008.5 1007.4 0.0
23/03:30pm 34.7 30.9 5.7 16 15.8 ESE 15 26 8 14 1009.0 - 0.0
23/02:30pm 35.0 31.1 7.0 17 15.6 ESE 17 28 9 15 1009.8 - 0.0
23/02:00pm 34.6 30.9 6.5 17 15.5 E 15 22 8 12 1010.3 - 0.0
23/01:30pm 34.8 30.1 5.9 16 15.8 ESE 20 24 11 13 1010.7 1009.6 0.0
23/01:00pm 34.1 29.3 4.7 16 15.7 ESE 19 28 10 15 1011.3 - 0.0
23/12:30pm 33.8 29.4 4.8 16 15.5 SSE 17 24 9 13 1011.6 - 0.0
23/11:30am 32.8 28.2 5.7 18 14.6 ESE 19 26 10 14 1012.9 - 0.0
23/11:00am 32.3 28.6 6.3 19 14.1 SE 15 20 8 11 1013.3 - 0.0
23/10:30am 31.4 28.7 7.4 22 13.2 SE 11 19 6 10 1013.4 1012.3 0.0
23/09:30am 28.9 27.5 9.0 28 11.1 S 6 7 3 4 1013.5 - 0.0
23/09:00am 27.0 26.5 10.8 36 9.2 NNW 4 7 2 4 1013.3 - 0.0
23/08:30am 25.1 24.3 9.5 37 8.6 WNW 4 7 2 4 1013.2 - 0.0
23/08:00am 22.7 22.1 11.7 49 6.2 SW 6 7 3 4 1013.0 - 0.0
23/07:30am 22.0 20.2 10.8 49 6.2 S 11 13 6 7 1012.7 1011.6 0.0
23/07:00am 21.7 20.2 10.4 48 6.2 SE 9 11 5 6 1012.6 - 0.0
23/06:30am 22.6 22.0 10.3 45 6.8 ESE 4 7 2 4 1012.2 - 0.0
23/06:00am 22.8 23.5 12.3 51 6.0 CALM 0 0 0 0 1012.0 - 0.0
23/05:30am 22.7 23.4 12.2 51 6.0 CALM 0 0 0 0 1011.7 - 0.0
23/05:00am 23.0 22.1 10.8 46 6.8 SSW 6 9 3 5 1011.7 - 0.0
23/04:30am 23.4 22.3 11.8 48 6.6 SW 9 11 5 6 1011.6 1010.6 0.0
23/04:00am 23.9 23.1 11.1 44 7.2 WSW 6 7 3 4 1011.7 - 0.0
23/03:30am 23.5 22.6 11.3 46 6.9 W 7 7 4 4 1011.9 - 0.0
23/03:00am 23.6 23.0 11.8 47 6.7 WNW 6 7 3 4 1012.1 - 0.0
23/02:30am 23.6 22.8 11.8 47 6.7 NW 7 9 4 5 1012.5 - 0.0
23/02:00am 23.1 22.0 11.8 49 6.4 NNW 9 11 5 6 1012.8 - 0.0
23/01:30am 24.8 24.5 11.4 43 7.6 N 4 6 2 3 1012.9 1011.8 0.0
23/01:00am 24.9 24.8 12.2 45 7.3 W 4 7 2 4 1012.9 - 0.0
23/12:30am 25.2 24.8 12.4 45 7.4 WSW 6 7 3 4 1013.0 - 0.0
23/12:00am 24.8 25.6 12.6 46 7.1 CALM 0 0 0 0 1013.1 - 0.0
 
Date/Time
CST
Temp
°C
App
Temp
°C
Dew
Point
Rel
Hum
%
Delta-T
°C
Wind Press
QNH
hPa
Press
MSL
hPa
Rain
since 9 am
mm
Dir
 
Spd
km/h
Gust
km/h
Spd
kts
Gust
kts
22/11:30pm 25.6 25.5 13.2 46 7.3 E 6 7 3 4 1013.2 - 0.0
22/11:00pm 26.0 26.6 13.1 44 7.6 E 2 6 1 3 1013.1 - 0.0
22/10:30pm 26.6 25.7 11.2 38 8.8 E 7 9 4 5 1013.2 1012.1 0.0
22/10:00pm 26.7 27.1 12.5 41 8.3 ENE 2 6 1 3 1013.1 - 0.0
22/09:30pm 27.2 26.7 12.1 39 8.8 SSE 6 7 3 4 1012.7 - 0.0
22/08:30pm 28.9 27.8 10.8 32 10.4 SSE 7 9 4 5 1012.1 - 0.0
22/08:00pm 28.9 28.0 11.5 34 10.1 SE 7 9 4 5 1011.7 - 0.0
22/07:30pm 29.2 28.3 11.5 33 10.3 - 7 9 4 5 1011.3 1010.2 0.0
22/07:00pm 30.0 29.3 12.0 33 10.6 ESE 7 9 4 5 1011.0 - 0.0
22/06:30pm 31.5 29.8 9.8 26 12.4 ESE 9 13 5 7 1010.6 - 0.0
22/06:00pm 33.0 30.3 8.9 22 13.7 ESE 13 20 7 11 1010.3 - 0.0
22/05:30pm 33.7 30.7 7.8 20 14.5 SE 13 19 7 10 1010.0 - 0.0
22/05:00pm 34.2 30.2 6.6 18 15.2 SSE 17 26 9 14 1009.9 - 0.0
22/04:30pm 34.3 30.9 7.5 19 15.0 SE 15 24 8 13 1009.9 1008.8 0.0
22/04:00pm 34.4 30.5 7.0 18 15.2 SE 17 30 9 16 1010.0 - 0.0
22/03:30pm 34.6 31.1 7.4 18 15.2 SE 15 22 8 12 1010.2 - 0.0
22/03:00pm 34.8 32.0 8.7 20 14.9 SSE 13 24 7 13 1010.6 - 0.0
22/02:30pm 34.4 30.6 7.6 19 15.0 ESE 17 24 9 13 1010.9 - 0.0
22/02:00pm 34.3 30.2 8.0 19 14.8 SSE 19 32 10 17 1011.4 - 0.0
22/01:30pm 33.7 29.8 7.2 19 14.7 ESE 17 28 9 15 1011.8 1010.8 0.0
22/01:00pm 33.6 30.8 8.5 21 14.2 E 13 24 7 13 1012.8 - 0.0
22/12:30pm 33.2 30.3 8.3 21 14.0 ESE 13 22 7 12 1013.4 - 0.0
22/12:00pm 32.6 29.7 8.1 22 13.7 E 13 22 7 12 1014.1 - 0.0
22/11:30am 32.3 28.6 7.8 22 13.6 E 17 22 9 12 1014.7 - 0.0
22/11:00am 31.2 29.0 9.3 25 12.4 ESE 11 17 6 9 1015.1 - 0.0
22/10:30am 30.0 27.1 8.0 25 12.1 ESE 13 19 7 10 1015.2 1014.1 0.0
22/10:00am 29.6 26.9 8.8 27 11.6 SE 13 20 7 11 1015.1 - 0.0
22/09:30am 28.8 27.0 9.6 30 10.8 SE 9 13 5 7 1014.9 - 0.0
22/09:00am 28.5 27.4 10.6 32 10.2 SE 7 11 4 6 1014.9 - 0.0
22/08:30am 27.8 28.4 11.8 37 9.3 CALM 0 0 0 0 1014.6 - 0.0
22/08:00am 25.4 26.2 12.5 44 7.5 CALM 0 6 0 3 1014.3 - 0.0
22/07:30am 23.5 23.8 12.1 48 6.5 ESE 2 7 1 4 1014.2 1013.1 0.0
22/07:00am 22.4 23.6 13.7 58 5.1 CALM 0 0 0 0 1013.7 - 0.0
22/06:30am 23.9 23.2 11.3 45 7.1 WSW 6 7 3 4 1013.5 - 0.0
22/06:00am 23.8 24.3 11.7 46 6.9 CALM 0 0 0 0 1013.3 - 0.0
22/05:30am 23.9 24.9 13.3 51 6.2 CALM 0 0 0 0 1013.1 - 0.0
22/05:00am 23.9 24.9 13.1 50 6.3 CALM 0 0 0 0 1012.9 - 0.0
22/04:30am 24.1 24.1 12.3 47 6.8 WSW 4 7 2 4 1012.9 1011.8 0.0
22/04:00am 24.7 24.4 11.5 43 7.5 WNW 4 6 2 3 1012.9 - 0.0
22/03:30am 23.6 23.1 12.5 49 6.4 W 7 7 4 4 1012.9 - 0.0
22/03:00am 24.7 23.6 10.8 41 7.8 NNW 7 9 4 5 1013.1 - 0.0
22/02:30am 24.4 23.9 10.9 42 7.6 NW 4 7 2 4 1013.3 - 0.0
22/02:00am 24.9 23.9 10.9 41 7.9 S 7 9 4 5 1013.4 - 0.0
22/01:30am 25.2 24.4 11.1 41 8.0 SSE 6 9 3 5 1013.6 1012.5 0.0
22/01:00am 26.3 25.3 11.0 38 8.7 S 7 13 4 7 1013.7 - 0.0
22/12:30am 26.8 25.2 10.3 35 9.3 S 9 13 5 7 1013.9 - 0.0
22/12:00am 27.3 25.6 9.8 33 9.8 S 9 15 5 8 1013.9 - 0.0
 
Date/Time
CST
Temp
°C
App
Temp
°C
Dew
Point
Rel
Hum
%
Delta-T
°C
Wind Press
QNH
hPa
Press
MSL
hPa
Rain
since 9 am
mm
Dir
 
Spd
km/h
Gust
km/h
Spd
kts
Gust
kts
21/11:30pm 28.3 26.4 9.0 29 10.7 S 9 13 5 7 1014.0 - 0.0
21/11:00pm 28.4 26.3 8.1 28 11.1 S 9 11 5 6 1014.0 - 0.0
21/10:30pm 27.9 26.7 10.2 33 10.0 SSW 7 11 4 6 1014.0 1012.9 0.0
21/10:00pm 27.0 26.0 11.1 37 9.1 SSW 7 11 4 6 1013.7 - 0.0
21/09:30pm 27.4 26.6 11.6 37 9.1 WSW 7 9 4 5 1013.6 - 0.0
21/09:00pm 28.1 27.4 11.5 35 9.6 SW 6 7 3 4 1013.3 - 0.0
21/08:30pm 28.1 27.6 12.2 37 9.3 SW 6 7 3 4 1013.0 - 0.0
21/08:00pm 28.9 27.9 11.0 33 10.3 W 7 7 4 4 1012.5 - 0.0
21/07:30pm 29.4 28.9 12.2 34 10.1 N 6 7 3 4 1012.4 1011.3 0.0
21/07:00pm 30.6 30.6 11.2 30 11.3 NNE 2 9 1 5 1012.1 - 0.0
21/06:30pm 32.5 33.1 12.0 28 12.2 CALM 0 0 0 0 1011.7 - 0.0
21/06:00pm 33.7 33.3 8.4 21 14.3 CALM 0 0 0 0 1011.5 - 0.0
21/05:30pm 33.8 32.0 7.1 19 14.8 E 6 9 3 5 1011.1 - 0.0
21/05:00pm 34.1 32.1 6.4 18 15.2 WNW 6 11 3 6 1011.0 - 0.0
21/04:30pm 34.2 31.4 6.9 18 15.1 E 11 15 6 8 1010.8 1009.7 0.0
21/04:00pm 34.1 31.7 7.0 18 15.0 N 9 17 5 9 1010.8 - 0.0
21/03:30pm 34.1 31.5 6.1 17 15.3 E 9 15 5 8 1010.9 - 0.0
21/03:00pm 34.1 31.0 5.7 17 15.4 ENE 11 20 6 11 1011.1 - 0.0
21/02:30pm 34.2 30.7 5.6 17 15.5 ESE 13 17 7 9 1011.5 - 0.0
21/02:00pm 33.7 30.0 4.5 16 15.5 ESE 13 20 7 11 1011.8 - 0.0
21/01:30pm 33.2 29.6 5.2 17 15.0 E 13 20 7 11 1012.4 1011.3 0.0
21/01:00pm 32.5 28.2 5.4 18 14.5 E 17 26 9 14 1012.9 - 0.0
21/12:30pm 31.8 27.4 4.6 18 14.3 E 17 24 9 13 1013.4 - 0.0
21/12:00pm 31.7 27.9 3.7 17 14.5 E 13 20 7 11 1013.9 - 0.0
21/11:30am 31.1 28.1 4.2 18 14.0 E 9 15 5 8 1014.4 - 0.0
21/11:00am 30.8 27.8 5.9 21 13.3 SE 11 17 6 9 1014.9 - 0.0
21/10:30am 29.4 26.4 6.1 23 12.4 ESE 11 15 6 8 1015.1 1014.0 0.0
21/10:00am 28.7 26.2 6.6 24 11.8 ESE 9 13 5 7 1015.1 - 0.0
21/09:30am 27.6 25.4 7.9 28 10.7 SSE 9 13 5 7 1014.8 - 0.0
21/09:00am 26.6 25.1 8.4 31 9.9 SSE 6 7 3 4 1014.6 - 0.0
21/08:30am 24.2 22.8 9.4 39 8.1 SSE 7 9 4 5 1014.5 - 0.0
21/08:00am 23.7 23.8 10.1 42 7.5 CALM 0 0 0 0 1014.2 - 0.0
21/07:30am 22.4 22.0 8.3 40 7.5 CALM 0 0 0 0 1013.6 1012.5 0.0
21/07:00am 22.0 21.0 9.0 43 7.0 NW 4 7 2 4 1013.4 - 0.0
21/06:30am 21.4 20.1 9.3 46 6.5 NW 6 7 3 4 1013.1 - 0.0
21/06:00am 21.5 20.3 9.7 47 6.4 NW 6 7 3 4 1012.8 - 0.0
21/05:30am 22.0 20.6 8.7 42 7.1 WNW 6 7 3 4 1012.5 - 0.0
21/05:00am 22.7 22.5 9.2 42 7.3 CALM 0 0 0 0 1012.4 - 0.0
21/04:30am 22.5 22.4 9.4 43 7.1 CALM 0 0 0 0 1012.2 1011.2 0.0
21/04:00am 22.7 21.6 9.9 44 7.0 W 6 7 3 4 1012.4 - 0.0
21/03:30am 23.3 22.7 9.1 40 7.7 W 2 7 1 4 1012.5 - 0.0
21/03:00am 23.1 22.0 10.0 43 7.2 W 6 9 3 5 1012.6 - 0.0
21/02:30am 23.8 23.8 9.8 41 7.7 CALM 0 0 0 0 1012.6 - 0.0
21/02:00am 24.0 24.1 10.3 42 7.6 CALM 0 0 0 0 1012.7 - 0.0
21/01:30am 24.4 23.6 9.5 38 8.2 W 4 6 2 3 1012.8 1011.7 0.0
21/01:00am 24.0 22.6 9.4 39 8.0 WNW 7 9 4 5 1012.8 - 0.0
21/12:30am 24.3 22.8 9.3 38 8.2 W 7 11 4 6 1013.0 - 0.0
21/12:00am 25.0 24.5 9.3 37 8.6 NNW 2 7 1 4 1013.1 - 0.0
 
Date/Time
CST
Temp
°C
App
Temp
°C
Dew
Point
Rel
Hum
%
Delta-T
°C
Wind Press
QNH
hPa
Press
MSL
hPa
Rain
since 9 am
mm
Dir
 
Spd
km/h
Gust
km/h
Spd
kts
Gust
kts
20/11:30pm 25.8 24.8 9.0 34 9.2 N 4 6 2 3 1013.1 - 0.0
20/11:00pm 25.3 23.8 9.3 36 8.8 NNE 7 9 4 5 1013.2 - 0.0
20/10:30pm 26.2 23.7 8.4 32 9.7 ESE 11 13 6 7 1013.0 1011.9 0.0
20/10:00pm 25.8 23.7 9.8 36 8.9 ESE 11 13 6 7 1013.3 - 0.0
20/09:30pm 26.1 24.6 10.7 38 8.7 E 9 11 5 6 1013.2 - 0.0
20/09:00pm 26.6 25.4 11.7 39 8.6 E 9 11 5 6 1013.0 - 0.0
20/08:30pm 26.9 25.9 12.3 40 8.5 E 9 11 5 6 1012.7 - 0.0
20/08:00pm 28.6 26.3 9.0 29 10.9 SE 11 13 6 7 1012.2 - 0.0
20/07:30pm 29.5 27.7 9.4 28 11.3 SSE 9 13 5 7 1011.8 1010.8 0.0

Other Formats:

Comma delimited format used in spreadsheet applications
http://www.bom.gov.au/fwo/IDD60801/IDD60801.94217.axf

JavaScript Object Notation format (JSON) in row-major order
http://www.bom.gov.au/fwo/IDD60801/IDD60801.94217.json